»·PEaware :: N364CM KCRQ-KSBA

N364CM :: KCRQ-KSBA

FLIGHT INFORMATION

Flight Status: Arrived
Operator: Privately registered:
United States
More flights under this callsign
Pilot: Brian S. (32023)
Aircraft: BEECH AIRCRAFT SUPER KING AIR 350
(B350)
More flights by this aircraft type
Origin: KCRQ McClellan-Palomar
United States
Destination: KSBA Santa Barbara Mun
United States
More flights between these airports :: More routes between these airports
Route: +MZB293 V27 SXC V208 VTU VTU282 KWANG
File this flight plan on PilotEdge
Remarks:
Altitude:
(Current/Filed)
8,000ft
Speed:
(Current/Filed)
260kts
Departed: 16-Oct-20 05:53 PM
Arrived: 16-Oct-20 06:49 PM
Distance/Time
Traveled:
150nm/0:56
Distance/Time
To Go:
Arrived

Flight Plot

Page will automatically refresh every two minutes.


Map Options




Map Legend


Flown Route
Filed Route
Departure Airport
Arrival Airport
Navaid (VOR, NDB)
Fix

Horizontal Profiles

Position Reports

Time Latitude Longitude Heading Altitude Ground
Speed
16-Oct-20 17:16 33.126928 -117.280635 349 336ft 0kts
16-Oct-20 17:17 33.126928 -117.280635 349 336ft 0kts
16-Oct-20 17:18 33.126928 -117.280635 349 336ft 0kts
16-Oct-20 17:20 33.126928 -117.280635 349 336ft 0kts
16-Oct-20 17:23 33.126928 -117.280635 349 336ft 0kts
16-Oct-20 17:24 33.126928 -117.280635 349 336ft 0kts
16-Oct-20 17:25 33.126928 -117.280635 349 336ft 0kts
16-Oct-20 17:26 33.126928 -117.280635 349 336ft 0kts
16-Oct-20 17:27 33.126928 -117.280635 349 336ft 0kts
16-Oct-20 17:28 33.126928 -117.280635 349 336ft 0kts
16-Oct-20 17:29 33.126928 -117.280635 349 336ft 0kts
16-Oct-20 17:30 33.126928 -117.280635 349 336ft 0kts
16-Oct-20 17:31 33.126928 -117.280635 349 336ft 0kts
16-Oct-20 17:39 33.126928 -117.280635 349 336ft 0kts
16-Oct-20 17:40 33.126928 -117.280635 349 336ft 0kts
16-Oct-20 17:41 33.126928 -117.280635 349 336ft 0kts
16-Oct-20 17:42 33.126928 -117.280635 349 336ft 0kts
16-Oct-20 17:43 33.126928 -117.280635 349 336ft 0kts
16-Oct-20 17:44 33.126928 -117.280635 349 336ft 0kts
16-Oct-20 17:45 33.126928 -117.280635 349 336ft 0kts
16-Oct-20 17:46 33.126928 -117.280635 349 336ft 0kts
16-Oct-20 17:47 33.126928 -117.280635 349 336ft 0kts
16-Oct-20 17:48 33.127017 -117.280653 356 336ft 5kts
16-Oct-20 17:49 33.128335 -117.274438 78 336ft 28kts
16-Oct-20 17:50 33.128800 -117.272316 53 336ft 0kts
16-Oct-20 17:51 33.129445 -117.272730 258 336ft 0kts
16-Oct-20 17:52 33.127869 -117.282424 259 336ft 108kts
16-Oct-20 17:53 33.121468 -117.328860 262 1076ft 159kts
16-Oct-20 17:54 33.115563 -117.381793 262 2070ft 162kts
16-Oct-20 17:55 33.109580 -117.435494 262 3067ft 163kts
16-Oct-20 17:56 33.103554 -117.489665 262 4069ft 166kts
16-Oct-20 17:57 33.097465 -117.544485 262 5061ft 167kts
16-Oct-20 17:58 33.091534 -117.599427 271 6017ft 168kts
16-Oct-20 17:59 33.097826 -117.655368 276 7004ft 171kts
16-Oct-20 18:00 33.109172 -117.710634 293 8006ft 173kts
16-Oct-20 18:01 33.135605 -117.766835 303 8089ft 214kts
16-Oct-20 18:02 33.171608 -117.827726 306 8088ft 233kts
16-Oct-20 18:03 33.210669 -117.891058 307 8085ft 240kts
16-Oct-20 18:04 33.251849 -117.954882 307 8083ft 244kts
16-Oct-20 18:05 33.293083 -118.019420 307 8083ft 245kts
16-Oct-20 18:06 33.334086 -118.084757 295 8060ft 246kts
16-Oct-20 18:07 33.342082 -118.165440 279 8079ft 244kts
16-Oct-20 18:08 33.352872 -118.246050 279 7950ft 247kts
16-Oct-20 18:09 33.363295 -118.326740 278 7972ft 244kts
16-Oct-20 18:10 33.373496 -118.407274 278 7972ft 244kts
16-Oct-20 18:11 33.412023 -118.472310 310 7973ft 243kts
16-Oct-20 18:12 33.455538 -118.534345 310 7972ft 243kts
16-Oct-20 18:13 33.499130 -118.596520 310 7972ft 243kts
16-Oct-20 18:14 33.542713 -118.658786 309 7972ft 244kts
16-Oct-20 18:15 33.586117 -118.720900 309 7972ft 244kts
16-Oct-20 18:16 33.629735 -118.783430 309 7972ft 244kts
16-Oct-20 18:17 33.673154 -118.845782 309 7972ft 244kts
16-Oct-20 18:18 33.716363 -118.907943 309 8119ft 239kts
16-Oct-20 18:19 33.759522 -118.970136 309 8064ft 243kts
16-Oct-20 18:20 33.810391 -119.017100 353 8111ft 240kts
16-Oct-20 18:21 33.877600 -119.024516 355 8064ft 243kts
16-Oct-20 18:22 33.945109 -119.031608 355 8063ft 244kts
16-Oct-20 18:23 34.012493 -119.038674 355 8063ft 244kts
16-Oct-20 18:24 34.081268 -119.045888 355 7502ft 265kts
16-Oct-20 18:25 34.134139 -119.094848 297 5998ft 260kts
16-Oct-20 18:26 34.166753 -119.172502 297 4504ft 258kts
16-Oct-20 18:27 34.198807 -119.249111 297 4059ft 249kts
16-Oct-20 18:28 34.229420 -119.322468 297 4062ft 242kts
16-Oct-20 18:29 34.259531 -119.394730 297 4062ft 239kts
16-Oct-20 18:30 34.289385 -119.466557 297 4063ft 238kts
16-Oct-20 18:31 34.312117 -119.540648 273 4104ft 235kts
16-Oct-20 18:32 34.315458 -119.620421 273 4073ft 238kts
16-Oct-20 18:33 34.318836 -119.700247 272 4073ft 238kts
16-Oct-20 18:34 34.322249 -119.780421 272 4073ft 238kts
16-Oct-20 18:35 34.325682 -119.860527 272 4073ft 238kts
16-Oct-20 18:36 34.329129 -119.940487 273 4073ft 238kts
16-Oct-20 18:37 34.332586 -120.019933 273 3513ft 225kts
16-Oct-20 18:38 34.335658 -120.090550 273 2050ft 195kts
16-Oct-20 18:40 34.342230 -120.158858 309 2047ft 219kts
16-Oct-20 18:41 34.392185 -120.181607 343 2058ft 173kts
16-Oct-20 18:42 34.421213 -120.146887 82 2053ft 165kts
16-Oct-20 18:43 34.422309 -120.090810 88 2074ft 168kts
16-Oct-20 18:44 34.423607 -120.033864 88 2073ft 170kts
16-Oct-20 18:45 34.424866 -119.977521 88 2057ft 144kts
16-Oct-20 18:46 34.425853 -119.932525 88 1285ft 124kts
16-Oct-20 18:47 34.426708 -119.892670 88 657ft 114kts
16-Oct-20 18:48 34.427504 -119.854854 88 42ft 109kts
16-Oct-20 18:49 34.428086 -119.838869 18 14ft 8kts
16-Oct-20 18:50 34.429433 -119.839189 344 15ft 10kts
16-Oct-20 18:51 34.431568 -119.836883 71 15ft 17kts
16-Oct-20 18:52 34.432351 -119.835897 129 15ft 0kts
16-Oct-20 18:53 34.432351 -119.835897 129 15ft 0kts
16-Oct-20 18:54 34.432351 -119.835897 129 15ft 0kts

Navigation Log

Ident Type
Flight plan parsing failed, navigation log unavailable